Time;durP1;ratioP1;P1;durP2;ratioP2;P2;SDS_P1;SDS_P2;PMS_P1;PMS_P2;Temp;Humidity;BMP_temperature;BMP_pressure;BME280_temperature;BME280_humidity;BME280_pressure;Samples;Min_cycle;Max_cycle;Signal;HPM_P1;HPM_P2
2024/03/22 00:02:14;;;;;;;20.80;14.20;;;;;;;8.32;55.78;96858.46;108252;1272;26311;-73
2024/03/22 00:04:45;;;;;;;21.10;14.10;;;;;;;8.31;55.90;96858.50;108240;1277;22537;-73
2024/03/22 00:07:16;;;;;;;23.60;14.10;;;;;;;8.29;55.95;96854.94;108267;1272;25342;-73
2024/03/22 00:09:46;;;;;;;21.10;14.30;;;;;;;8.29;55.97;96855.84;108319;1277;22747;-73
2024/03/22 00:12:17;;;;;;;21.20;13.10;;;;;;;8.26;56.20;96852.18;108250;1277;22534;-73
2024/03/22 00:14:48;;;;;;;21.50;14.90;;;;;;;8.22;56.25;96854.28;108290;1272;22659;-72
2024/03/22 00:17:18;;;;;;;22.60;14.10;;;;;;;8.20;56.38;96853.64;108264;1272;22658;-73
2024/03/22 00:19:49;;;;;;;21.70;14.40;;;;;;;8.19;56.45;96848.46;108301;1277;22532;-73
2024/03/22 00:22:20;;;;;;;22.70;13.70;;;;;;;8.21;56.58;96849.58;108255;1277;22653;-73
2024/03/22 00:24:50;;;;;;;19.70;13.90;;;;;;;8.24;56.83;96847.36;108266;1277;22521;-72
2024/03/22 00:27:21;;;;;;;19.90;12.90;;;;;;;8.26;57.13;96849.38;108291;1277;22533;-73
2024/03/22 00:29:51;;;;;;;21.20;14.30;;;;;;;8.26;57.25;96844.36;108353;1277;25420;-73
2024/03/22 00:32:22;;;;;;;20.00;13.00;;;;;;;8.27;57.47;96844.68;108291;1273;22560;-73
2024/03/22 00:34:52;;;;;;;22.70;14.00;;;;;;;8.28;57.71;96842.78;108282;1278;24203;-73
2024/03/22 00:37:23;;;;;;;23.50;13.50;;;;;;;8.28;58.19;96842.14;108311;1278;23494;-73
2024/03/22 00:39:54;;;;;;;19.90;12.40;;;;;;;8.27;58.16;96842.84;108302;1277;22537;-73
2024/03/22 00:42:24;;;;;;;20.40;14.20;;;;;;;8.24;58.23;96844.05;108284;1271;22891;-73
2024/03/22 00:44:56;;;;;;;19.20;12.40;;;;;;;8.24;58.65;96840.83;108295;1278;24250;-73
2024/03/22 00:47:27;;;;;;;19.30;13.20;;;;;;;8.27;58.78;96838.82;108314;1277;22532;-73
2024/03/22 00:49:58;;;;;;;20.30;13.40;;;;;;;8.28;59.12;96839.30;108332;1278;22534;-73
2024/03/22 00:52:29;;;;;;;18.20;12.60;;;;;;;8.29;59.19;96839.45;108293;1271;22536;-73
2024/03/22 00:54:59;;;;;;;20.00;14.10;;;;;;;8.29;59.15;96840.93;108251;1278;25698;-73
2024/03/22 00:57:30;;;;;;;21.20;13.20;;;;;;;8.29;59.34;96843.37;108285;1277;22536;-73
2024/03/22 01:00:00;;;;;;;21.40;13.10;;;;;;;8.28;59.25;96843.10;108276;1276;22541;-73
2024/03/22 01:02:31;;;;;;;19.00;13.10;;;;;;;8.27;59.33;96840.23;108178;1271;22641;-73
2024/03/22 01:05:02;;;;;;;20.30;13.40;;;;;;;8.27;59.31;96838.50;108290;1276;22526;-73
2024/03/22 01:07:35;;;;;;;21.00;13.90;;;;;;;8.27;59.35;96838.23;108343;1271;24259;-73
2024/03/22 01:10:08;;;;;;;18.10;12.20;;;;;;;8.25;59.57;96835.38;108332;1278;22711;-73
2024/03/22 01:12:39;;;;;;;21.70;13.20;;;;;;;8.23;59.59;96834.69;108250;1278;22577;-73
2024/03/22 01:15:10;;;;;;;18.60;12.70;;;;;;;8.21;59.80;96831.73;108310;1271;22644;-73
2024/03/22 01:17:41;;;;;;;20.90;12.80;;;;;;;8.20;59.99;96831.66;108274;1278;22569;-73
2024/03/22 01:20:13;;;;;;;18.50;13.00;;;;;;;8.19;60.20;96832.56;108352;1271;22533;-73
2024/03/22 01:22:44;;;;;;;21.70;13.60;;;;;;;8.19;60.40;96829.23;108311;1278;22537;-73
2024/03/22 01:25:14;;;;;;;18.50;13.30;;;;;;;8.18;60.57;96832.67;108301;1271;22564;-73
2024/03/22 01:27:45;;;;;;;20.00;14.30;;;;;;;8.19;60.94;96830.56;108321;1278;22525;-73
2024/03/22 01:30:15;;;;;;;21.30;15.40;;;;;;;8.23;61.09;96831.41;108287;1271;22766;-73
2024/03/22 01:32:46;;;;;;;20.60;14.00;;;;;;;8.25;61.30;96836.86;108297;1279;22650;-73
2024/03/22 01:35:17;;;;;;;21.50;13.30;;;;;;;8.27;61.39;96835.44;108286;1277;22533;-73
2024/03/22 01:37:47;;;;;;;22.40;15.40;;;;;;;8.27;61.50;96836.48;108352;1276;24278;-73
2024/03/22 01:40:18;;;;;;;23.30;15.40;;;;;;;8.29;61.79;96840.67;108305;1277;22624;-73
2024/03/22 01:42:49;;;;;;;22.80;14.70;;;;;;;8.32;61.98;96839.86;108305;1277;22681;-73
2024/03/22 01:45:19;;;;;;;26.20;16.90;;;;;;;8.32;62.00;96839.07;108309;1267;24256;-73
2024/03/22 01:47:50;;;;;;;24.10;16.00;;;;;;;8.34;62.28;96835.50;108310;1277;22565;-73
2024/03/22 01:50:21;;;;;;;25.30;16.20;;;;;;;8.35;62.54;96832.35;108267;1278;22558;-73
2024/03/22 01:52:52;;;;;;;21.50;14.60;;;;;;;8.36;62.54;96830.18;108262;1278;27004;-73
2024/03/22 01:55:23;;;;;;;25.40;14.80;;;;;;;8.34;62.82;96828.84;108283;1278;22577;-72
2024/03/22 01:57:54;;;;;;;23.00;15.10;;;;;;;8.35;62.88;96827.00;108296;1278;24262;-72
2024/03/22 02:00:25;;;;;;;22.90;15.30;;;;;;;8.33;62.95;96831.52;108326;1278;25354;-73
2024/03/22 02:02:55;;;;;;;25.20;16.50;;;;;;;8.32;63.10;96826.71;108289;1278;22555;-72
2024/03/22 02:05:26;;;;;;;21.90;15.70;;;;;;;8.31;63.34;96826.54;108265;1276;22539;-73
2024/03/22 02:07:57;;;;;;;24.70;16.00;;;;;;;8.33;63.66;96825.29;108312;1276;25451;-73
2024/03/22 02:10:30;;;;;;;24.50;16.30;;;;;;;8.33;63.59;96825.60;108316;1278;22535;-72
2024/03/22 02:13:01;;;;;;;23.10;16.00;;;;;;;8.32;63.92;96824.96;108276;1278;22576;-73
2024/03/22 02:15:31;;;;;;;24.70;17.20;;;;;;;8.31;64.09;96829.56;108294;1278;22544;-73
2024/03/22 02:18:02;;;;;;;24.70;17.30;;;;;;;8.32;64.30;96824.23;108316;1278;26050;-73
2024/03/22 02:20:33;;;;;;;22.70;15.90;;;;;;;8.31;64.45;96822.74;108289;1278;22557;-73
2024/03/22 02:23:03;;;;;;;22.10;16.10;;;;;;;8.30;64.66;96824.96;108252;1271;24637;-72
2024/03/22 02:25:36;;;;;;;24.70;17.10;;;;;;;8.31;64.55;96825.33;108298;1278;24326;-73
2024/03/22 02:28:08;;;;;;;24.70;17.80;;;;;;;8.31;64.78;96824.11;108250;1279;22549;-74
2024/03/22 02:30:38;;;;;;;26.20;17.90;;;;;;;8.32;65.13;96826.02;108277;1278;22542;-73
2024/03/22 02:33:09;;;;;;;28.80;20.00;;;;;;;8.38;65.38;96823.31;108292;1278;22528;-73
2024/03/22 02:35:39;;;;;;;26.20;17.90;;;;;;;8.43;65.97;96825.13;108229;1276;22529;-73
2024/03/22 02:38:10;;;;;;;29.70;20.70;;;;;;;8.46;65.99;96824.31;108313;1277;23643;-73
2024/03/22 02:40:41;;;;;;;32.40;21.40;;;;;;;8.50;66.25;96820.35;108286;1278;22549;-73
2024/03/22 02:43:12;;;;;;;28.70;20.40;;;;;;;8.57;66.51;96823.27;108251;1278;23216;-73
2024/03/22 02:45:42;;;;;;;28.90;19.70;;;;;;;8.60;66.62;96826.37;108296;1278;22529;-73
2024/03/22 02:48:13;;;;;;;28.20;19.90;;;;;;;8.59;66.67;96824.40;108251;1279;22524;-73
2024/03/22 02:50:44;;;;;;;28.60;19.80;;;;;;;8.60;66.85;96821.77;108346;1271;25413;-73
2024/03/22 02:53:14;;;;;;;30.30;22.10;;;;;;;8.61;67.05;96826.42;108256;1279;22745;-73
2024/03/22 02:55:45;;;;;;;30.00;20.80;;;;;;;8.61;67.08;96830.33;108277;1271;23535;-73
2024/03/22 02:58:16;;;;;;;27.20;19.50;;;;;;;8.63;67.27;96827.64;108294;1278;22540;-73
2024/03/22 03:00:46;;;;;;;27.60;19.40;;;;;;;8.62;67.24;96829.95;108309;1271;26473;-73
2024/03/22 03:03:19;;;;;;;28.20;18.80;;;;;;;8.63;67.45;96827.42;108292;1276;25518;-73
2024/03/22 03:05:49;;;;;;;29.00;19.30;;;;;;;8.64;67.74;96824.67;108284;1271;23243;-73
2024/03/22 03:08:20;;;;;;;28.10;18.80;;;;;;;8.66;68.13;96828.64;108291;1278;22557;-73
2024/03/22 03:10:50;;;;;;;23.40;16.10;;;;;;;8.67;68.13;96826.53;108325;1278;22526;-73
2024/03/22 03:13:21;;;;;;;21.20;16.00;;;;;;;8.63;67.71;96831.39;108220;1271;22641;-73
2024/03/22 03:15:52;;;;;;;23.70;16.60;;;;;;;8.57;67.48;96831.36;108342;1276;22539;-73
2024/03/22 03:18:22;;;;;;;29.30;17.90;;;;;;;8.53;67.70;96832.30;108324;1271;25276;-73
2024/03/22 03:20:53;;;;;;;24.50;17.80;;;;;;;8.52;67.92;96832.98;108290;1278;22536;-73
2024/03/22 03:23:24;;;;;;;26.20;18.20;;;;;;;8.48;68.05;96829.11;108266;1278;25420;-73
2024/03/22 03:25:54;;;;;;;24.60;16.50;;;;;;;8.44;68.16;96830.32;108318;1271;22891;-73
2024/03/22 03:28:26;;;;;;;22.50;17.20;;;;;;;8.38;68.09;96828.48;108304;1278;22565;-73
2024/03/22 03:30:56;;;;;;;24.50;17.90;;;;;;;8.36;68.33;96829.55;108317;1273;22528;-73
2024/03/22 03:33:27;;;;;;;27.40;19.20;;;;;;;8.36;68.21;96826.64;108280;1278;22570;-73
2024/03/22 03:35:57;;;;;;;27.00;19.00;;;;;;;8.34;68.49;96827.90;108313;1277;22541;-73
2024/03/22 03:38:30;;;;;;;24.10;17.40;;;;;;;8.34;68.74;96824.61;108295;1277;22526;-73
2024/03/22 03:41:01;;;;;;;26.00;19.40;;;;;;;8.33;69.07;96818.33;108302;1277;22531;-73
2024/03/22 03:43:31;;;;;;;26.20;17.40;;;;;;;8.37;69.43;96820.35;108263;1277;23732;-72
2024/03/22 03:46:02;;;;;;;24.00;17.10;;;;;;;8.37;69.27;96817.83;108337;1271;22571;-73
2024/03/22 03:48:32;;;;;;;23.70;17.70;;;;;;;8.35;69.46;96816.86;108300;1277;27715;-73
2024/03/22 03:51:03;;;;;;;25.90;19.00;;;;;;;8.36;69.67;96812.70;108289;1277;25338;-73
2024/03/22 03:53:36;;;;;;;32.40;23.50;;;;;;;8.37;70.13;96811.42;108288;1277;22543;-73
2024/03/22 03:56:07;;;;;;;27.90;21.30;;;;;;;8.40;71.10;96810.53;108318;1276;24326;-73
2024/03/22 03:58:37;;;;;;;27.90;20.60;;;;;;;8.43;71.28;96811.43;108295;1277;25457;-73
2024/03/22 04:01:10;;;;;;;26.40;21.10;;;;;;;8.46;72.12;96805.81;108284;1277;22524;-73
2024/03/22 04:03:40;;;;;;;25.90;19.60;;;;;;;8.47;71.73;96806.82;108411;1271;22533;-73
2024/03/22 04:06:12;;;;;;;27.00;19.90;;;;;;;8.44;71.83;96807.80;108346;1276;22529;-73
2024/03/22 04:08:43;;;;;;;25.20;18.80;;;;;;;8.44;71.95;96806.58;108308;1277;22522;-73
2024/03/22 04:11:14;;;;;;;27.00;19.00;;;;;;;8.42;71.97;96807.95;108298;1277;22530;-73
2024/03/22 04:13:45;;;;;;;26.10;19.60;;;;;;;8.41;72.21;96807.63;108303;1271;25389;-73
2024/03/22 04:16:15;;;;;;;27.80;20.60;;;;;;;8.41;72.17;96810.84;108267;1277;22543;-73
2024/03/22 04:18:46;;;;;;;25.80;20.00;;;;;;;8.41;72.41;96804.73;108271;1271;22558;-73
2024/03/22 04:21:17;;;;;;;34.10;25.50;;;;;;;8.42;72.77;96805.84;108317;1255;22545;-73
2024/03/22 04:23:51;;;;;;;37.60;27.80;;;;;;;8.44;73.54;96806.17;108303;1271;22863;-72
2024/03/22 04:26:22;;;;;;;29.90;22.60;;;;;;;8.51;74.02;96798.01;108339;1277;22536;-73
2024/03/22 04:28:53;;;;;;;32.10;25.20;;;;;;;8.53;73.68;96804.29;108339;1276;22564;-73
2024/03/22 04:31:24;;;;;;;39.20;31.60;;;;;;;8.52;74.38;96800.80;108272;1277;22565;-73
2024/03/22 04:33:54;;;;;;;27.90;22.20;;;;;;;8.56;74.75;96808.58;108292;1272;22544;-73
2024/03/22 04:36:25;;;;;;;28.90;22.30;;;;;;;8.56;74.50;96807.98;108296;1277;22513;-73
2024/03/22 04:38:56;;;;;;;32.20;25.90;;;;;;;8.55;74.55;96809.63;108328;1277;22541;-73
2024/03/22 04:41:27;;;;;;;39.90;32.30;;;;;;;8.55;74.95;96804.23;108270;1271;22528;-73
2024/03/22 04:43:57;;;;;;;35.10;26.80;;;;;;;8.59;75.58;96807.75;108323;1278;22614;-73
2024/03/22 04:46:28;;;;;;;36.30;27.10;;;;;;;8.61;75.63;96802.58;108317;1271;25287;-72
2024/03/22 04:48:59;;;;;;;41.40;32.30;;;;;;;8.62;75.95;96807.97;108293;1274;25305;-73
2024/03/22 04:51:29;;;;;;;47.00;38.00;;;;;;;8.65;76.25;96804.23;108301;1277;22551;-73
2024/03/22 04:54:00;;;;;;;54.40;41.30;;;;;;;8.68;76.67;96804.44;108302;1278;22540;-73
2024/03/22 04:56:31;;;;;;;44.70;35.30;;;;;;;8.68;77.10;96803.27;108319;1278;22572;-73
2024/03/22 04:59:02;;;;;;;47.20;35.90;;;;;;;8.70;77.44;96804.91;108307;1277;22562;-73
2024/03/22 05:01:33;;;;;;;44.50;35.80;;;;;;;8.72;77.71;96806.02;108277;1271;24437;-73
2024/03/22 05:04:03;;;;;;;43.50;35.20;;;;;;;8.74;77.84;96807.86;108304;1277;22538;-73
2024/03/22 05:06:34;;;;;;;45.10;35.60;;;;;;;8.76;78.01;96812.02;108278;1278;22533;-73
2024/03/22 05:09:05;;;;;;;45.20;35.80;;;;;;;8.76;78.08;96815.20;108283;1277;22526;-73
2024/03/22 05:11:36;;;;;;;43.00;33.50;;;;;;;8.79;78.29;96816.26;108285;1278;24224;-73
2024/03/22 05:14:07;;;;;;;40.80;33.40;;;;;;;8.82;78.51;96821.11;108268;1278;25423;-73
2024/03/22 05:16:37;;;;;;;38.50;30.90;;;;;;;8.84;78.47;96818.42;108263;1271;22550;-73
2024/03/22 05:19:10;;;;;;;42.60;35.30;;;;;;;8.86;78.65;96819.95;108318;1277;24274;-73
2024/03/22 05:21:41;;;;;;;42.90;33.40;;;;;;;8.86;78.33;96818.48;108319;1277;22536;-73
2024/03/22 05:24:11;;;;;;;38.90;28.60;;;;;;;8.81;78.52;96823.55;108275;1278;22662;-73
2024/03/22 05:26:42;;;;;;;38.70;31.40;;;;;;;8.80;79.29;96822.81;108287;1274;22529;-73
2024/03/22 05:29:14;;;;;;;37.50;32.60;;;;;;;8.80;79.74;96822.34;108284;1278;22525;-73
2024/03/22 05:31:51;;;;;;;36.50;30.50;;;;;;;8.82;80.23;96825.93;108308;1278;22536;-73
2024/03/22 05:34:22;;;;;;;35.60;29.60;;;;;;;8.86;80.36;96824.52;108312;1271;22564;-73
2024/03/22 05:36:54;;;;;;;40.80;31.80;;;;;;;8.87;80.33;96820.46;108301;1279;22580;-72
2024/03/22 05:39:24;;;;;;;36.30;30.20;;;;;;;8.87;80.64;96826.37;108299;1271;23973;-73
2024/03/22 05:41:55;;;;;;;34.60;27.80;;;;;;;8.87;81.15;96829.70;108272;1271;22525;-73
2024/03/22 05:44:25;;;;;;;38.70;31.30;;;;;;;8.88;81.12;96828.39;108287;1271;25235;-73
2024/03/22 05:46:56;;;;;;;37.40;29.00;;;;;;;8.86;81.41;96829.75;108251;1278;22542;-73
2024/03/22 05:49:27;;;;;;;37.60;27.80;;;;;;;8.84;81.86;96834.91;108292;1263;22583;-73
2024/03/22 05:51:58;;;;;;;35.60;30.60;;;;;;;8.82;82.40;96835.23;108285;1278;22638;-73
2024/03/22 05:54:28;;;;;;;38.00;32.10;;;;;;;8.79;83.05;96841.52;108269;1278;22569;-73
2024/03/22 05:57:01;;;;;;;38.20;31.80;;;;;;;8.79;83.10;96842.42;108272;1278;22536;-73
2024/03/22 05:59:32;;;;;;;39.50;30.90;;;;;;;8.78;83.35;96841.37;108298;1272;24164;-73
2024/03/22 06:02:03;;;;;;;38.80;32.00;;;;;;;8.79;83.94;96838.67;108274;1278;22539;-73
2024/03/22 06:04:34;;;;;;;36.40;28.80;;;;;;;8.79;84.10;96842.84;108266;1278;22534;-73
2024/03/22 06:07:06;;;;;;;38.90;30.10;;;;;;;8.83;84.00;96838.14;107777;1278;626900;-73
2024/03/22 06:09:45;;;;;;;41.80;35.00;;;;;;;8.87;84.00;96841.49;108315;1278;22573;-73
2024/03/22 06:12:17;;;;;;;37.70;29.90;;;;;;;8.85;84.24;96845.91;108274;1276;22533;-73
2024/03/22 06:14:50;;;;;;;38.70;31.20;;;;;;;8.84;84.21;96837.51;108348;1278;22756;-73
2024/03/22 06:17:21;;;;;;;35.70;29.60;;;;;;;8.83;84.44;96841.21;108310;1271;25286;-73
2024/03/22 06:19:52;;;;;;;41.50;33.30;;;;;;;8.86;84.32;96842.65;108280;1277;25360;-73
2024/03/22 06:22:23;;;;;;;42.60;30.90;;;;;;;8.85;84.26;96838.25;108282;1278;22541;-73
2024/03/22 06:24:53;;;;;;;41.00;31.10;;;;;;;8.81;84.75;96846.98;108302;1271;22560;-73
2024/03/22 06:27:24;;;;;;;37.20;30.30;;;;;;;8.80;84.73;96841.42;108265;1278;22524;-73
2024/03/22 06:29:55;;;;;;;42.60;35.00;;;;;;;8.82;84.66;96841.31;108345;1278;22998;-73
2024/03/22 06:32:25;;;;;;;40.00;33.20;;;;;;;8.82;84.91;96843.01;108273;1271;22624;-73
2024/03/22 06:34:57;;;;;;;36.20;28.70;;;;;;;8.84;84.96;96842.95;108273;1278;22590;-73
2024/03/22 06:37:27;;;;;;;36.90;29.00;;;;;;;8.88;84.71;96840.23;108313;1278;24264;-73
2024/03/22 06:39:59;;;;;;;36.90;30.60;;;;;;;8.89;84.59;96843.78;108300;1278;22522;-73
2024/03/22 06:42:29;;;;;;;41.30;33.30;;;;;;;8.91;84.71;96838.60;108280;1278;24204;-73
2024/03/22 06:45:00;;;;;;;38.10;32.10;;;;;;;8.95;84.65;96839.92;108280;1278;22557;-73
2024/03/22 06:47:30;;;;;;;36.10;28.70;;;;;;;9.00;84.61;96843.10;108300;1271;22529;-73
2024/03/22 06:50:01;;;;;;;37.00;29.00;;;;;;;9.02;84.43;96844.05;108269;1277;22522;-73
2024/03/22 06:52:32;;;;;;;33.80;28.60;;;;;;;8.99;84.53;96847.11;108287;1278;25293;-73
2024/03/22 06:55:03;;;;;;;31.70;26.70;;;;;;;9.00;84.35;96844.99;108271;1276;22555;-73
2024/03/22 06:57:34;;;;;;;37.60;30.50;;;;;;;9.01;84.30;96844.84;108275;1278;22554;-73
2024/03/22 07:00:09;;;;;;;32.60;27.80;;;;;;;8.99;84.52;96849.44;108312;1278;22545;-73
2024/03/22 07:02:40;;;;;;;27.00;24.00;;;;;;;9.03;84.63;96848.62;108309;1271;25301;-73
2024/03/22 07:05:12;;;;;;;33.00;26.80;;;;;;;9.12;84.60;96849.80;108271;1268;25270;-73
2024/03/22 07:07:43;;;;;;;31.50;26.90;;;;;;;9.18;84.42;96846.73;108289;1271;25525;-73
2024/03/22 07:10:14;;;;;;;32.40;27.40;;;;;;;9.29;84.74;96843.52;108297;1278;22535;-73
2024/03/22 07:12:45;;;;;;;25.80;21.80;;;;;;;9.42;84.50;96847.90;108280;1278;22520;-73
2024/03/22 07:15:16;;;;;;;27.00;23.00;;;;;;;9.48;84.08;96850.14;108294;1279;24231;-73
2024/03/22 07:17:46;;;;;;;24.70;21.50;;;;;;;9.57;84.13;96842.51;108277;1279;22724;-73
2024/03/22 07:20:18;;;;;;;24.70;21.90;;;;;;;9.65;83.72;96841.02;108311;1278;22529;-73
2024/03/22 07:22:49;;;;;;;28.00;23.60;;;;;;;9.67;83.49;96838.80;108271;1276;22529;-73
2024/03/22 07:25:20;;;;;;;26.00;21.10;;;;;;;9.69;83.57;96832.59;108302;1277;25462;-72
2024/03/22 07:27:51;;;;;;;28.00;24.80;;;;;;;9.66;83.24;96833.23;108324;1278;22547;-73
2024/03/22 07:30:22;;;;;;;25.60;20.90;;;;;;;9.57;83.11;96834.63;108324;1278;22531;-73
2024/03/22 07:32:52;;;;;;;23.90;20.90;;;;;;;9.47;82.78;96835.16;108257;1278;22542;-73
2024/03/22 07:35:24;;;;;;;25.60;21.40;;;;;;;9.40;82.92;96836.83;108321;1274;22529;-73
2024/03/22 07:37:58;;;;;;;27.00;23.70;;;;;;;9.38;83.00;96837.90;108291;1278;22747;-73
2024/03/22 07:40:28;;;;;;;28.20;22.40;;;;;;;9.35;82.98;96831.08;108323;1278;22574;-73
2024/03/22 07:42:59;;;;;;;25.70;21.50;;;;;;;9.34;83.06;96830.92;108252;1277;22529;-74
2024/03/22 07:45:30;;;;;;;27.40;22.60;;;;;;;9.37;83.10;96828.33;108268;1278;22534;-73
2024/03/22 07:48:03;;;;;;;26.60;23.60;;;;;;;9.41;83.15;96822.77;108289;1278;22495;-74
2024/03/22 07:50:34;;;;;;;25.20;20.80;;;;;;;9.44;83.05;96822.36;108304;1278;22528;-73
2024/03/22 07:53:05;;;;;;;26.60;21.40;;;;;;;9.43;82.83;96823.67;108282;1271;25298;-73
2024/03/22 07:55:36;;;;;;;22.30;17.80;;;;;;;9.39;82.76;96819.59;108292;1279;22545;-74
2024/03/22 07:58:09;;;;;;;25.60;20.80;;;;;;;9.36;82.81;96815.36;108313;1278;22548;-74
2024/03/22 08:00:40;;;;;;;26.00;22.40;;;;;;;9.33;82.76;96811.83;108297;1278;22533;-75
2024/03/22 08:03:16;;;;;;;25.70;20.90;;;;;;;9.31;82.85;96808.91;108319;1278;22542;-73
2024/03/22 08:05:47;;;;;;;24.20;21.00;;;;;;;9.30;82.90;96809.77;108385;1272;22556;-73
2024/03/22 08:08:18;;;;;;;24.10;20.10;;;;;;;9.29;82.91;96806.00;108406;1278;22533;-73
2024/03/22 08:10:49;;;;;;;27.10;21.80;;;;;;;9.27;82.91;96807.69;108399;1278;25446;-73
2024/03/22 08:13:20;;;;;;;27.90;23.00;;;;;;;9.24;83.08;96805.98;108326;1256;22570;-74
2024/03/22 08:15:51;;;;;;;26.90;22.70;;;;;;;9.19;83.21;96803.52;108357;1276;22643;-74
2024/03/22 08:18:21;;;;;;;27.00;23.00;;;;;;;9.16;83.35;96804.83;108283;1278;22530;-73
2024/03/22 08:20:52;;;;;;;28.80;25.30;;;;;;;9.12;83.35;96802.55;108274;1271;22554;-73
2024/03/22 08:23:23;;;;;;;28.80;25.50;;;;;;;9.10;83.53;96800.05;108293;1277;22603;-74
2024/03/22 08:25:53;;;;;;;25.20;21.90;;;;;;;9.12;83.83;96800.59;108272;1277;22743;-74
2024/03/22 08:28:24;;;;;;;28.20;23.30;;;;;;;9.15;83.88;96802.56;108282;1277;25317;-73
2024/03/22 08:30:55;;;;;;;29.50;24.90;;;;;;;9.14;83.78;96796.99;108308;1277;22562;-73
2024/03/22 08:33:26;;;;;;;27.70;24.50;;;;;;;9.13;83.93;96797.52;108256;1277;22590;-73
2024/03/22 08:35:56;;;;;;;26.10;23.30;;;;;;;9.11;83.94;96797.63;108283;1277;22540;-73
2024/03/22 08:38:27;;;;;;;25.30;21.90;;;;;;;9.08;84.05;96800.01;108308;1277;25433;-73
2024/03/22 08:40:58;;;;;;;28.60;23.60;;;;;;;9.02;84.17;96800.48;108291;1278;22568;-73
2024/03/22 08:43:29;;;;;;;28.30;24.20;;;;;;;8.97;84.45;96801.58;108236;1277;22529;-73
2024/03/22 08:45:59;;;;;;;26.20;23.10;;;;;;;8.94;84.78;96795.55;108300;1262;22528;-73
2024/03/22 08:48:30;;;;;;;26.60;23.40;;;;;;;9.01;85.19;96795.77;108287;1276;22593;-73
2024/03/22 08:51:00;;;;;;;22.80;20.00;;;;;;;9.14;85.44;96792.92;108295;1277;22532;-73
2024/03/22 08:53:32;;;;;;;26.60;21.60;;;;;;;9.30;85.42;96794.04;108295;1278;25240;-73
2024/03/22 08:56:03;;;;;;;23.70;19.90;;;;;;;9.39;85.17;96793.92;108284;1278;22636;-73
2024/03/22 08:58:34;;;;;;;26.70;22.20;;;;;;;9.44;84.97;96796.80;108320;1277;22528;-73
2024/03/22 09:01:04;;;;;;;27.00;23.50;;;;;;;9.41;84.61;96799.11;108277;1271;22583;-73
2024/03/22 09:03:35;;;;;;;28.10;22.70;;;;;;;9.36;84.90;96800.07;108280;1278;22556;-73
2024/03/22 09:06:06;;;;;;;26.20;21.70;;;;;;;9.35;85.00;96797.80;108309;1277;22537;-73
2024/03/22 09:08:39;;;;;;;27.30;22.40;;;;;;;9.33;84.93;96801.92;108289;1278;22566;-73
2024/03/22 09:11:10;;;;;;;25.60;21.70;;;;;;;9.28;85.09;96797.41;108251;1278;22561;-73
2024/03/22 09:13:42;;;;;;;30.20;21.30;;;;;;;9.22;85.23;96798.22;108272;1278;22644;-73
2024/03/22 09:16:12;;;;;;;26.10;22.10;;;;;;;9.17;85.41;96796.85;108294;1271;22533;-73
2024/03/22 09:18:43;;;;;;;26.40;20.80;;;;;;;9.11;85.82;96798.05;108293;1278;22523;-73
2024/03/22 09:21:14;;;;;;;26.70;21.10;;;;;;;9.10;86.01;96799.11;108294;1278;22572;-73
2024/03/22 09:23:49;;;;;;;31.60;22.80;;;;;;;9.10;86.31;96794.19;108301;1278;23377;-73
2024/03/22 09:26:20;;;;;;;27.90;23.00;;;;;;;9.18;86.95;96790.59;108257;1279;25527;-72
2024/03/22 09:28:51;;;;;;;27.80;23.40;;;;;;;9.31;87.13;96791.29;108292;1269;22553;-73
2024/03/22 09:31:22;;;;;;;25.40;22.00;;;;;;;9.48;87.58;96786.56;108262;1278;22557;-73
2024/03/22 09:33:53;;;;;;;23.00;20.30;;;;;;;9.71;87.53;96787.27;108265;1278;22544;-73
2024/03/22 09:36:24;;;;;;;27.00;24.20;;;;;;;10.00;87.72;96785.67;108335;1276;22538;-73
2024/03/22 09:38:58;;;;;;;27.60;24.40;;;;;;;10.36;87.63;96781.52;108256;1274;22572;-73
2024/03/22 09:41:30;;;;;;;29.10;22.90;;;;;;;10.57;86.48;96776.23;108288;1277;22902;-73
2024/03/22 09:44:03;;;;;;;23.00;19.60;;;;;;;10.66;85.84;96778.20;108358;1278;22540;-73
2024/03/22 09:46:35;;;;;;;43.00;31.10;;;;;;;10.70;85.30;96770.76;108330;1278;22530;-73
2024/03/22 09:49:11;;;;;;;26.60;23.70;;;;;;;10.60;84.82;96772.09;108299;1274;22525;-73
2024/03/22 09:51:42;;;;;;;27.70;23.60;;;;;;;10.67;84.95;96767.96;108359;1278;22583;-73
2024/03/22 09:54:13;;;;;;;27.30;24.30;;;;;;;10.65;84.10;96768.29;108283;1278;22531;-73
2024/03/22 09:56:45;;;;;;;24.20;20.00;;;;;;;10.54;83.88;96767.14;108278;1278;22525;-73
2024/03/22 09:59:15;;;;;;;25.20;22.50;;;;;;;10.44;83.77;96768.67;108255;1278;22570;-73
2024/03/22 10:01:47;;;;;;;23.40;20.70;;;;;;;10.43;83.87;96770.48;108288;1278;26619;-73
2024/03/22 10:04:19;;;;;;;28.80;22.80;;;;;;;10.46;83.82;96768.03;108258;1276;24345;-73
2024/03/22 10:06:51;;;;;;;67.40;41.90;;;;;;;10.60;84.29;96766.41;108285;1278;22622;-72
2024/03/22 10:09:28;;;;;;;39.60;29.50;;;;;;;10.83;84.23;96765.52;108299;1279;23178;-73
2024/03/22 10:11:59;;;;;;;45.50;35.00;;;;;;;11.01;83.45;96761.55;108218;1278;22551;-73
2024/03/22 10:14:31;;;;;;;25.40;22.70;;;;;;;11.05;83.14;96762.57;108303;1278;22568;-73
2024/03/22 10:17:01;;;;;;;30.40;24.90;;;;;;;11.11;82.94;96755.46;108294;1278;22536;-73
2024/03/22 10:19:32;;;;;;;27.80;24.80;;;;;;;11.13;82.72;96753.54;108284;1278;22532;-73
2024/03/22 10:22:06;;;;;;;34.60;30.90;;;;;;;11.24;83.02;96749.62;108294;1262;24228;-73
2024/03/22 10:24:37;;;;;;;30.00;26.60;;;;;;;11.48;83.13;96750.64;108255;1278;22607;-73
2024/03/22 10:27:07;;;;;;;22.70;19.90;;;;;;;11.71;82.39;96746.96;108282;1272;22579;-73
2024/03/22 10:29:39;;;;;;;25.20;22.40;;;;;;;11.70;81.30;96746.27;108359;1278;24354;-73
2024/03/22 10:32:13;;;;;;;21.80;19.40;;;;;;;11.70;81.36;96741.44;108238;1278;22543;-73
2024/03/22 10:34:46;;;;;;;28.50;23.60;;;;;;;11.80;80.78;96742.99;108270;1279;22548;-73
2024/03/22 10:37:18;;;;;;;39.50;31.60;;;;;;;11.73;80.26;96736.52;108293;1276;24246;-73
2024/03/22 10:39:53;;;;;;;24.90;22.00;;;;;;;11.69;80.23;96734.98;108314;1278;22658;-73
2024/03/22 10:42:24;;;;;;;25.90;22.40;;;;;;;11.70;80.03;96734.33;108280;1278;22571;-73
2024/03/22 10:44:55;;;;;;;28.80;24.90;;;;;;;11.81;80.26;96734.55;108258;1278;22515;-73
2024/03/22 10:47:30;;;;;;;30.00;24.10;;;;;;;11.84;79.69;96727.02;108297;1278;22599;-73
2024/03/22 10:50:07;;;;;;;29.30;23.90;;;;;;;11.61;78.41;96725.55;108347;1276;22562;-73
2024/03/22 10:52:43;;;;;;;26.90;23.40;;;;;;;11.39;78.54;96722.30;108253;1273;22536;-73
2024/03/22 10:55:20;;;;;;;24.50;21.70;;;;;;;11.42;78.92;96716.19;108360;1278;22529;-73
2024/03/22 10:57:51;;;;;;;25.50;21.40;;;;;;;11.52;79.38;96714.38;108287;1271;22531;-73
2024/03/22 11:00:29;;;;;;;26.60;23.50;;;;;;;11.62;79.32;96713.21;108285;1273;22634;-73
2024/03/22 11:03:03;;;;;;;27.90;24.20;;;;;;;11.60;78.81;96709.04;108278;1278;25356;-73
2024/03/22 11:05:34;;;;;;;28.60;24.10;;;;;;;11.70;79.30;96708.18;108340;1272;22545;-73
2024/03/22 11:08:06;;;;;;;23.10;20.30;;;;;;;11.85;78.92;96708.31;108239;1278;22617;-73
2024/03/22 11:10:38;;;;;;;25.20;20.50;;;;;;;11.82;77.90;96709.20;108304;1278;26446;-73
2024/03/22 11:13:11;;;;;;;27.10;24.00;;;;;;;11.55;76.98;96699.90;108235;1277;22524;-73
2024/03/22 11:15:42;;;;;;;29.80;23.60;;;;;;;11.33;77.05;96698.38;108303;1276;25413;-73
2024/03/22 11:18:13;;;;;;;25.20;20.40;;;;;;;11.31;77.17;96697.07;108293;1278;22542;-73
2024/03/22 11:20:45;;;;;;;25.40;20.20;;;;;;;11.39;77.27;96692.80;108288;1276;22554;-73
2024/03/22 11:23:16;;;;;;;26.30;21.20;;;;;;;11.43;76.97;96685.49;108253;1279;22554;-73
2024/03/22 11:25:48;;;;;;;26.80;22.70;;;;;;;11.35;76.71;96684.76;108292;1278;22549;-73
2024/03/22 11:28:19;;;;;;;24.70;19.80;;;;;;;11.26;76.73;96683.73;108294;1278;22540;-73
2024/03/22 11:30:51;;;;;;;27.00;21.60;;;;;;;11.24;76.89;96682.20;108230;1272;25888;-73
2024/03/22 11:33:22;;;;;;;25.10;20.80;;;;;;;11.24;77.13;96675.40;108292;1278;22561;-73
2024/03/22 11:35:52;;;;;;;24.70;19.70;;;;;;;11.24;77.16;96673.29;108282;1278;22589;-73